createdAt,value
2018-02-15T00:01:25.939Z,1.36
2018-02-15T00:03:53.515Z,1.38
2018-02-15T00:06:21.041Z,1.34
2018-02-15T00:08:48.594Z,1.38
2018-02-15T00:11:16.127Z,1.48
2018-02-15T00:13:43.674Z,1.50
2018-02-15T00:16:11.254Z,1.52
2018-02-15T00:18:38.831Z,1.56
2018-02-15T00:21:06.355Z,1.64
2018-02-15T00:23:33.928Z,1.70
2018-02-15T00:26:01.488Z,1.58
2018-02-15T00:28:29.012Z,1.54
2018-02-15T00:30:56.591Z,1.58
2018-02-15T00:33:24.116Z,1.58
2018-02-15T00:35:51.668Z,1.66
2018-02-15T00:38:19.272Z,1.71
2018-02-15T00:40:46.823Z,1.48
2018-02-15T00:43:14.401Z,1.58
2018-02-15T00:45:41.979Z,1.63
2018-02-15T00:48:09.506Z,1.71
2018-02-15T00:50:37.032Z,1.85
2018-02-15T00:53:04.638Z,1.83
2018-02-15T00:55:32.486Z,1.84
2018-02-15T00:58:00.064Z,1.92
2018-02-15T01:00:27.591Z,1.92
2018-02-15T01:02:55.169Z,1.98
2018-02-15T01:05:22.696Z,1.81
2018-02-15T01:07:50.302Z,1.91
2018-02-15T01:10:17.826Z,1.78
2018-02-15T01:12:45.421Z,2.00
2018-02-15T01:15:12.927Z,2.07
2018-02-15T01:17:40.458Z,1.88
2018-02-15T01:20:08.217Z,1.93
2018-02-15T01:22:36.966Z,2.07
2018-02-15T01:25:04.560Z,2.06
2018-02-15T01:27:32.120Z,2.18
2018-02-15T01:30:00.081Z,2.23
2018-02-15T01:32:28.429Z,2.19
2018-02-15T01:34:56.324Z,2.26
2018-02-15T01:37:23.943Z,2.30
2018-02-15T01:39:51.542Z,2.26
2018-02-15T01:42:19.100Z,2.31
2018-02-15T01:44:47.159Z,2.23
2018-02-15T01:47:14.739Z,2.08
2018-02-15T01:49:54.214Z,2.29
2018-02-15T01:52:21.739Z,2.39
2018-02-15T01:54:49.255Z,2.35
2018-02-15T01:57:16.944Z,2.40
2018-02-15T01:59:44.539Z,2.37
2018-02-15T02:02:12.273Z,2.39
2018-02-15T02:04:39.802Z,2.24
2018-02-15T02:07:07.354Z,2.35
2018-02-15T02:09:34.882Z,2.29
2018-02-15T02:12:02.430Z,2.39
2018-02-15T02:14:29.967Z,2.26
2018-02-15T02:16:57.488Z,2.30
2018-02-15T02:19:25.068Z,2.21
2018-02-15T02:21:52.590Z,1.94
2018-02-15T02:24:20.144Z,2.29
2018-02-15T02:26:47.670Z,2.43
2018-02-15T02:29:15.250Z,2.46
2018-02-15T02:31:42.766Z,2.29
2018-02-15T02:34:10.329Z,2.25
2018-02-15T02:36:37.855Z,2.10
2018-02-15T02:39:05.483Z,2.27
2018-02-15T02:41:33.033Z,2.21
2018-02-15T02:44:00.563Z,2.20
2018-02-15T02:46:28.116Z,2.18
2018-02-15T02:48:55.689Z,2.37
2018-02-15T02:51:23.248Z,2.47
2018-02-15T02:53:50.801Z,2.29
2018-02-15T02:56:19.417Z,2.24
2018-02-15T02:58:46.957Z,2.45
2018-02-15T03:01:14.506Z,2.40
2018-02-15T03:03:42.054Z,2.58
2018-02-15T03:06:09.583Z,2.69
2018-02-15T03:08:37.159Z,2.63
2018-02-15T03:11:04.713Z,2.63
2018-02-15T03:13:32.317Z,2.64
2018-02-15T03:15:59.842Z,2.66
2018-02-15T03:18:27.419Z,2.60
2018-02-15T03:20:54.947Z,2.47
2018-02-15T03:23:22.475Z,2.72
2018-02-15T03:25:50.098Z,2.58
2018-02-15T03:28:17.680Z,2.74
2018-02-15T03:30:45.234Z,2.68
2018-02-15T03:33:12.759Z,2.76
2018-02-15T03:35:40.310Z,2.72
2018-02-15T03:38:07.834Z,2.57
2018-02-15T03:40:35.383Z,2.66
2018-02-15T03:43:03.041Z,2.72
2018-02-15T03:45:30.599Z,2.75
2018-02-15T03:47:58.118Z,2.66
2018-02-15T03:50:25.703Z,2.49
2018-02-15T03:52:53.251Z,2.63
2018-02-15T03:55:21.726Z,2.57
2018-02-15T03:57:49.279Z,2.64
2018-02-15T04:00:16.805Z,2.48
2018-02-15T04:02:44.423Z,2.45
2018-02-15T04:05:11.965Z,2.42
2018-02-15T04:07:39.514Z,2.56
2018-02-15T04:10:07.041Z,2.59
2018-02-15T04:12:34.616Z,2.75
2018-02-15T04:15:02.169Z,2.67
2018-02-15T04:17:29.780Z,2.68
2018-02-15T04:19:57.350Z,2.79
2018-02-15T04:22:24.895Z,2.61
2018-02-15T04:24:52.454Z,2.77
2018-02-15T04:27:19.980Z,2.81
2018-02-15T04:29:47.540Z,2.83
2018-02-15T04:32:15.059Z,2.83
2018-02-15T04:34:42.614Z,2.88
2018-02-15T04:37:10.149Z,2.70
2018-02-15T04:39:37.717Z,2.75
2018-02-15T04:42:05.246Z,2.81
2018-02-15T04:44:32.769Z,2.70
2018-02-15T04:47:00.320Z,2.68
2018-02-15T04:49:27.856Z,2.73
2018-02-15T04:51:55.423Z,2.79
2018-02-15T04:54:22.956Z,2.76
2018-02-15T04:56:50.535Z,2.69
2018-02-15T04:59:18.064Z,2.66
2018-02-15T05:01:45.630Z,2.85
2018-02-15T05:04:13.172Z,2.90
2018-02-15T05:06:40.691Z,2.65
2018-02-15T05:09:08.271Z,2.74
2018-02-15T05:11:35.833Z,2.58
2018-02-15T05:14:03.643Z,2.69
2018-02-15T05:16:31.200Z,2.58
2018-02-15T05:18:58.831Z,2.59
2018-02-15T05:21:26.378Z,2.61
2018-02-15T05:23:53.985Z,2.47
2018-02-15T05:26:22.133Z,2.61
2018-02-15T05:28:49.714Z,2.54
2018-02-15T05:31:17.241Z,2.53
2018-02-15T05:33:45.023Z,2.11
2018-02-15T05:36:12.567Z,2.25
2018-02-15T05:38:40.095Z,2.28
2018-02-15T05:41:07.649Z,2.46
2018-02-15T05:43:35.276Z,2.08
2018-02-15T05:46:02.830Z,2.29
2018-02-15T05:48:30.354Z,2.32
2018-02-15T05:50:57.907Z,2.36
2018-02-15T05:53:25.464Z,2.46
2018-02-15T05:55:53.073Z,2.46
2018-02-15T05:58:20.612Z,2.33
2018-02-15T06:00:48.147Z,2.39
2018-02-15T06:03:15.699Z,2.37
2018-02-15T06:05:43.220Z,2.17
2018-02-15T06:08:10.774Z,2.21
2018-02-15T06:10:38.298Z,2.07
2018-02-15T06:13:05.851Z,2.11
2018-02-15T06:15:33.445Z,2.07
2018-02-15T06:18:00.980Z,2.24
2018-02-15T06:20:28.506Z,2.03
2018-02-15T06:22:56.061Z,2.27
2018-02-15T06:25:23.589Z,2.25
2018-02-15T06:27:51.190Z,2.21
2018-02-15T06:30:18.744Z,2.21
2018-02-15T06:32:46.275Z,2.02
2018-02-15T06:35:13.908Z,2.31
2018-02-15T06:37:41.426Z,2.35
2018-02-15T06:40:08.980Z,2.13
2018-02-15T06:42:36.631Z,2.25
2018-02-15T06:45:04.174Z,2.13
2018-02-15T06:47:31.993Z,2.07
2018-02-15T06:49:59.560Z,2.24
2018-02-15T06:52:27.228Z,2.13
2018-02-15T06:54:54.765Z,2.14
2018-02-15T06:57:22.467Z,1.98
2018-02-15T06:59:50.072Z,2.27
2018-02-15T07:02:17.646Z,2.47
2018-02-15T07:04:45.174Z,2.30
2018-02-15T07:07:12.743Z,2.44
2018-02-15T07:09:40.373Z,2.35
2018-02-15T07:12:07.931Z,2.31
2018-02-15T07:14:35.459Z,2.14
2018-02-15T07:17:03.042Z,2.46
2018-02-15T07:19:30.562Z,2.32
2018-02-15T07:21:58.091Z,2.29
2018-02-15T07:24:25.672Z,2.37
2018-02-15T07:26:55.493Z,2.37
2018-02-15T07:29:23.714Z,2.65
2018-02-15T07:31:51.231Z,2.43
2018-02-15T07:34:18.804Z,2.61
2018-02-15T07:36:46.353Z,2.66
2018-02-15T07:39:13.930Z,2.72
2018-02-15T07:41:41.489Z,2.62
2018-02-15T07:44:09.066Z,2.55
2018-02-15T07:46:36.589Z,2.62
2018-02-15T07:49:04.114Z,2.71
2018-02-15T07:51:31.742Z,2.19
2018-02-15T07:53:59.414Z,2.44
2018-02-15T07:56:27.198Z,2.79
2018-02-15T07:58:54.796Z,2.62
2018-02-15T08:01:23.000Z,2.80
2018-02-15T08:03:51.430Z,2.52
2018-02-15T08:06:20.423Z,2.64
2018-02-15T08:08:48.057Z,2.78
2018-02-15T08:11:15.690Z,2.79
2018-02-15T08:13:43.336Z,2.72
2018-02-15T08:16:10.839Z,2.56
2018-02-15T08:18:38.809Z,2.72
2018-02-15T08:21:06.440Z,2.84
2018-02-15T08:23:34.022Z,2.74
2018-02-15T08:26:01.696Z,2.75
2018-02-15T08:28:29.251Z,2.87
2018-02-15T08:30:56.778Z,2.88
2018-02-15T08:33:25.174Z,2.91
2018-02-15T08:35:52.930Z,2.99
2018-02-15T08:38:20.462Z,2.99
2018-02-15T08:40:48.064Z,2.82
2018-02-15T08:43:15.615Z,2.93
2018-02-15T08:45:43.195Z,2.75
2018-02-15T08:48:10.720Z,3.02
2018-02-15T08:50:38.299Z,3.03
2018-02-15T08:53:05.844Z,3.01
2018-02-15T08:55:33.402Z,3.11
2018-02-15T08:58:01.326Z,3.04
2018-02-15T09:00:29.206Z,2.89
2018-02-15T09:02:56.732Z,3.04
2018-02-15T09:05:24.263Z,3.08
2018-02-15T09:07:51.837Z,3.15
2018-02-15T09:10:19.389Z,3.11
2018-02-15T09:12:46.994Z,3.13
2018-02-15T09:15:14.519Z,2.65
2018-02-15T09:17:42.070Z,2.82
2018-02-15T09:20:09.608Z,3.12
2018-02-15T09:22:38.161Z,3.16
2018-02-15T09:25:05.756Z,3.10
2018-02-15T09:27:33.308Z,2.96
2018-02-15T09:30:00.837Z,3.08
2018-02-15T09:32:28.487Z,2.91
2018-02-15T09:34:56.011Z,3.18
2018-02-15T09:37:24.515Z,3.14
2018-02-15T09:39:52.134Z,3.27
2018-02-15T09:42:19.692Z,3.06
2018-02-15T09:44:47.365Z,3.14
2018-02-15T09:47:14.899Z,3.20
2018-02-15T09:49:42.451Z,3.18
2018-02-15T09:52:10.258Z,3.31
2018-02-15T09:54:39.389Z,3.36
2018-02-15T09:57:06.907Z,3.43
2018-02-15T09:59:34.484Z,3.53
2018-02-15T10:02:03.058Z,3.46
2018-02-15T10:04:30.592Z,3.35
2018-02-15T10:06:58.414Z,3.47
2018-02-15T10:09:26.545Z,3.62
2018-02-15T10:11:54.615Z,3.60
2018-02-15T10:14:22.850Z,3.51
2018-02-15T10:16:50.476Z,3.64
2018-02-15T10:19:18.109Z,3.73
2018-02-15T10:21:45.704Z,3.73
2018-02-15T10:24:17.861Z,3.49
2018-02-15T10:26:51.784Z,3.47
2018-02-15T10:29:23.685Z,3.66
2018-02-15T10:31:56.064Z,3.88
2018-02-15T10:34:29.290Z,3.71
2018-02-15T10:39:40.149Z,3.57
2018-02-15T10:42:13.955Z,3.71
2018-02-15T10:44:46.520Z,3.72
2018-02-15T10:47:23.336Z,3.92
2018-02-15T10:49:56.632Z,4.10
2018-02-15T10:52:30.181Z,4.06
2018-02-15T10:55:04.345Z,3.76
2018-02-15T11:00:14.398Z,4.04
2018-02-15T11:02:46.254Z,4.07
2018-02-15T11:05:19.692Z,4.10
2018-02-15T11:07:50.691Z,3.89
2018-02-15T11:10:22.030Z,4.01
2018-02-15T11:12:54.220Z,4.11
2018-02-15T11:15:26.348Z,4.18
2018-02-15T11:18:00.206Z,3.95
2018-02-15T11:20:31.378Z,4.10
2018-02-15T11:23:08.089Z,4.13
2018-02-15T11:25:40.582Z,4.11
2018-02-15T11:28:10.371Z,4.28
2018-02-15T11:30:38.018Z,4.31
2018-02-15T11:33:05.620Z,4.32
2018-02-15T11:35:33.147Z,4.44
2018-02-15T11:38:00.676Z,4.36
2018-02-15T11:40:28.254Z,4.39
2018-02-15T11:42:56.431Z,4.40
2018-02-15T11:45:23.982Z,4.39
2018-02-15T11:47:51.510Z,4.42
2018-02-15T11:50:19.055Z,4.26
2018-02-15T11:52:47.133Z,4.44
2018-02-15T11:55:14.687Z,4.46
2018-02-15T11:57:42.218Z,4.50
2018-02-15T12:00:09.794Z,4.34
2018-02-15T12:02:37.324Z,4.58
2018-02-15T12:05:04.851Z,4.66
2018-02-15T12:07:32.401Z,4.34
2018-02-15T12:09:59.926Z,4.55
2018-02-15T12:12:27.477Z,4.70
2018-02-15T12:14:55.011Z,4.79
2018-02-15T12:17:22.561Z,4.76
2018-02-15T12:19:50.092Z,4.82
2018-02-15T12:22:17.638Z,4.83
2018-02-15T12:24:51.448Z,4.85
2018-02-15T12:27:19.245Z,4.80
2018-02-15T12:29:46.789Z,4.85
2018-02-15T12:32:14.350Z,4.97
2018-02-15T12:34:44.871Z,4.91
2018-02-15T12:37:13.594Z,4.81
2018-02-15T12:39:42.810Z,4.89
2018-02-15T12:42:10.658Z,4.99
2018-02-15T12:44:39.354Z,4.85
2018-02-15T12:47:07.491Z,4.89
2018-02-15T12:49:37.635Z,4.94
2018-02-15T12:52:05.893Z,4.94
2018-02-15T12:54:35.297Z,5.00
2018-02-15T12:57:02.998Z,5.00
2018-02-15T12:59:33.462Z,5.00
2018-02-15T13:02:03.207Z,4.85
2018-02-15T13:04:32.823Z,4.62
2018-02-15T13:07:00.910Z,4.72
2018-02-15T13:09:35.208Z,4.88
2018-02-15T13:12:11.466Z,4.93
2018-02-15T13:14:45.215Z,4.89
2018-02-15T13:20:04.800Z,5.00
2018-02-15T13:22:47.872Z,4.97
2018-02-15T13:28:09.553Z,5.00
2018-02-15T13:30:46.629Z,5.09
2018-02-15T13:33:21.029Z,5.18
2018-02-15T13:41:07.490Z,5.21
2018-02-15T13:43:41.744Z,5.31
2018-02-15T13:46:16.454Z,5.24
2018-02-15T13:48:48.243Z,5.27
2018-02-15T13:51:27.781Z,5.28
2018-02-15T13:54:02.679Z,5.23
2018-02-15T13:56:38.424Z,5.17
2018-02-15T14:01:46.212Z,5.29
2018-02-15T14:04:19.579Z,5.35
2018-02-15T14:06:52.241Z,5.34
2018-02-15T14:09:24.976Z,5.38
2018-02-15T14:11:57.537Z,5.35
2018-02-15T14:14:32.381Z,5.34
2018-02-15T14:17:06.319Z,5.24
2018-02-15T14:19:39.868Z,5.30
2018-02-15T14:22:11.345Z,5.46
2018-02-15T14:24:40.074Z,5.43
2018-02-15T14:27:08.099Z,5.45
2018-02-15T14:29:37.948Z,5.54
2018-02-15T14:32:10.080Z,5.49
2018-02-15T14:34:40.094Z,5.41
2018-02-15T14:37:08.884Z,5.44
2018-02-15T14:39:38.596Z,5.57
2018-02-15T14:42:06.343Z,5.58
2018-02-15T14:44:34.498Z,5.57
2018-02-15T14:47:02.322Z,5.57
2018-02-15T14:49:31.153Z,5.46
2018-02-15T14:52:00.483Z,5.43
2018-02-15T14:54:28.999Z,5.48
2018-02-15T14:57:01.466Z,5.51
2018-02-15T14:59:29.359Z,5.48
2018-02-15T15:01:58.757Z,5.60
2018-02-15T15:04:28.111Z,5.68
2018-02-15T15:06:58.165Z,5.57
2018-02-15T15:09:28.306Z,5.62
2018-02-15T15:11:59.976Z,5.66
2018-02-15T15:14:28.922Z,5.69
2018-02-15T15:16:59.222Z,5.68
2018-02-15T15:19:29.954Z,5.68
2018-02-15T15:21:59.296Z,5.76
2018-02-15T15:24:28.136Z,5.78
2018-02-15T15:26:56.549Z,5.79
2018-02-15T15:29:27.866Z,5.80
2018-02-15T15:31:56.450Z,5.79
2018-02-15T15:34:25.572Z,5.70
2018-02-15T15:36:53.140Z,5.82
2018-02-15T15:39:22.839Z,5.79
2018-02-15T15:41:50.921Z,5.76
2018-02-15T15:44:19.449Z,5.78
2018-02-15T15:46:47.028Z,5.73
2018-02-15T15:49:14.578Z,5.76
2018-02-15T15:51:42.175Z,5.87
2018-02-15T15:54:09.711Z,5.57
2018-02-15T15:56:37.937Z,5.46
2018-02-15T15:59:05.795Z,5.35
2018-02-15T16:01:33.623Z,5.49
2018-02-15T16:04:02.168Z,5.51
2018-02-15T16:06:29.694Z,5.53
2018-02-15T16:08:57.876Z,5.49
2018-02-15T16:11:25.470Z,5.54
2018-02-15T16:13:53.055Z,5.50
2018-02-15T16:16:20.604Z,5.56
2018-02-15T16:18:49.058Z,5.62
2018-02-15T16:21:16.583Z,5.54
2018-02-15T16:23:45.631Z,5.50
2018-02-15T16:26:13.189Z,5.44
2018-02-15T16:28:40.739Z,5.42
2018-02-15T16:31:08.292Z,5.42
2018-02-15T16:33:35.873Z,5.52
2018-02-15T16:36:03.422Z,5.49
2018-02-15T16:38:31.150Z,5.39
2018-02-15T16:40:58.754Z,5.31
2018-02-15T16:43:29.707Z,5.40
2018-02-15T16:45:59.511Z,5.43
2018-02-15T16:48:27.988Z,5.36
2018-02-15T16:50:58.258Z,5.34
2018-02-15T16:56:16.414Z,5.44
2018-02-15T16:58:48.880Z,5.41
2018-02-15T17:01:19.274Z,5.44
2018-02-15T17:03:48.391Z,5.43
2018-02-15T17:06:19.151Z,5.33
2018-02-15T17:08:48.078Z,5.32
2018-02-15T17:11:16.651Z,5.26
2018-02-15T17:13:46.231Z,5.37
2018-02-15T17:16:14.585Z,5.34
2018-02-15T17:18:45.809Z,5.12
2018-02-15T17:21:15.623Z,4.92
2018-02-15T17:23:44.490Z,5.04
2018-02-15T17:26:14.038Z,4.98
2018-02-15T17:28:43.348Z,5.06
2018-02-15T17:31:11.106Z,5.12
2018-02-15T17:33:40.629Z,5.28
2018-02-15T17:36:08.818Z,5.31
2018-02-15T17:38:38.131Z,5.23
2018-02-15T17:41:07.075Z,5.25
2018-02-15T17:43:35.831Z,5.27
2018-02-15T17:48:44.714Z,5.15
2018-02-15T17:51:14.023Z,5.24
2018-02-15T17:53:44.787Z,4.80
2018-02-15T17:56:14.288Z,5.02
2018-02-15T17:58:43.225Z,4.87
2018-02-15T18:01:14.608Z,4.74
2018-02-15T18:03:42.628Z,4.93
2018-02-15T18:06:11.328Z,5.00
2018-02-15T18:08:41.729Z,5.07
2018-02-15T18:11:11.163Z,4.94
2018-02-15T18:13:41.636Z,4.84
2018-02-15T18:16:12.109Z,5.05
2018-02-15T18:18:41.564Z,4.79
2018-02-15T18:21:09.992Z,5.00
2018-02-15T18:23:40.130Z,5.02
2018-02-15T18:28:51.193Z,5.13
2018-02-15T18:31:18.779Z,5.11
2018-02-15T18:33:46.458Z,5.07
2018-02-15T18:36:15.446Z,5.15
2018-02-15T18:38:43.686Z,5.03
2018-02-15T18:41:11.210Z,5.11
2018-02-15T18:43:38.738Z,5.14
2018-02-15T18:46:06.296Z,5.19
2018-02-15T18:48:33.815Z,5.16
2018-02-15T18:51:01.398Z,5.07
2018-02-15T18:53:29.130Z,5.17
2018-02-15T18:55:56.719Z,5.13
2018-02-15T18:58:24.279Z,5.18
2018-02-15T19:00:51.839Z,5.15
2018-02-15T19:03:19.392Z,5.13
2018-02-15T19:05:47.035Z,5.12
2018-02-15T19:08:15.054Z,5.10
2018-02-15T19:10:42.613Z,5.09
2018-02-15T19:13:10.141Z,5.15
2018-02-15T19:15:37.672Z,4.81
2018-02-15T19:18:05.222Z,4.97
2018-02-15T19:20:32.746Z,5.07
2018-02-15T19:23:00.304Z,5.10
2018-02-15T19:25:27.826Z,5.00
2018-02-15T19:27:56.259Z,5.09
2018-02-15T19:30:24.888Z,5.08
2018-02-15T19:32:53.411Z,5.09
2018-02-15T19:35:20.963Z,5.01
2018-02-15T19:37:48.514Z,5.04
2018-02-15T19:40:16.037Z,5.07
2018-02-15T19:42:43.594Z,5.10
2018-02-15T19:45:11.122Z,5.05
2018-02-15T19:47:39.083Z,4.91
2018-02-15T19:50:06.803Z,4.87
2018-02-15T19:52:34.323Z,5.04
2018-02-15T19:55:01.900Z,5.05
2018-02-15T19:57:29.531Z,4.99
2018-02-15T19:59:57.086Z,5.01
2018-02-15T20:02:24.610Z,5.00
2018-02-15T20:04:52.202Z,4.99
2018-02-15T20:07:19.746Z,4.97
2018-02-15T20:09:47.314Z,4.98
2018-02-15T20:12:14.844Z,4.94
2018-02-15T20:14:42.398Z,4.93
2018-02-15T20:17:10.994Z,4.89
2018-02-15T20:19:49.170Z,4.88
2018-02-15T20:22:16.706Z,4.88
2018-02-15T20:24:44.231Z,4.71
2018-02-15T20:27:17.516Z,4.85
2018-02-15T20:29:47.584Z,4.83
2018-02-15T20:32:16.294Z,4.90
2018-02-15T20:34:43.891Z,4.89
2018-02-15T20:37:11.438Z,4.89
2018-02-15T20:39:44.652Z,4.74
2018-02-15T20:42:12.247Z,4.87
2018-02-15T20:44:39.813Z,4.96
2018-02-15T20:47:07.478Z,4.94
2018-02-15T20:52:40.183Z,4.84
2018-02-15T20:55:13.284Z,4.73
2018-02-15T20:57:40.847Z,4.80
2018-02-15T21:00:08.491Z,4.77
2018-02-15T21:02:36.146Z,4.84
2018-02-15T21:05:03.697Z,4.90
2018-02-15T21:07:31.229Z,4.89
2018-02-15T21:10:00.548Z,4.97
2018-02-15T21:12:28.810Z,4.94
2018-02-15T21:14:56.427Z,4.91
2018-02-15T21:17:24.707Z,4.83
2018-02-15T21:19:52.403Z,4.89
2018-02-15T21:22:20.511Z,5.00
2018-02-15T21:24:48.169Z,4.93
2018-02-15T21:27:16.960Z,4.87
2018-02-15T21:29:46.593Z,4.85
2018-02-15T21:32:14.430Z,4.78
2018-02-15T21:34:41.991Z,4.90
2018-02-15T21:37:09.938Z,4.37
2018-02-15T21:39:37.528Z,4.22
2018-02-15T21:42:05.431Z,4.35
2018-02-15T21:44:33.131Z,4.60
2018-02-15T21:47:01.038Z,4.57
2018-02-15T21:49:28.631Z,4.77
2018-02-15T21:51:58.472Z,4.82
2018-02-15T21:54:26.187Z,4.40
2018-02-15T21:56:53.751Z,4.73
2018-02-15T21:59:22.804Z,4.87
2018-02-15T22:01:52.614Z,4.75
2018-02-15T22:04:21.992Z,4.60
2018-02-15T22:06:52.906Z,4.61
2018-02-15T22:09:21.279Z,4.68
2018-02-15T22:11:49.358Z,4.69
2018-02-15T22:14:16.930Z,4.49
2018-02-15T22:16:44.525Z,4.53
2018-02-15T22:19:12.086Z,4.59
2018-02-15T22:21:39.914Z,4.65
2018-02-15T22:24:07.868Z,4.71
2018-02-15T22:26:36.785Z,4.68
2018-02-15T22:29:04.427Z,4.72
2018-02-15T22:31:32.724Z,4.78
2018-02-15T22:34:00.307Z,4.59
2018-02-15T22:36:31.003Z,4.62
2018-02-15T22:38:59.335Z,4.60
2018-02-15T22:41:27.513Z,4.69
2018-02-15T22:43:55.582Z,4.65
2018-02-15T22:46:24.117Z,4.73
2018-02-15T22:48:51.746Z,4.75
2018-02-15T22:51:19.393Z,4.79
2018-02-15T22:53:48.419Z,4.70
2018-02-15T22:56:16.314Z,4.69
2018-02-15T22:58:43.852Z,4.73
2018-02-15T23:01:14.103Z,4.71
2018-02-15T23:03:41.653Z,4.74
2018-02-15T23:06:09.232Z,4.68
2018-02-15T23:08:36.810Z,4.71
2018-02-15T23:11:04.358Z,4.68
2018-02-15T23:13:32.012Z,4.61
2018-02-15T23:16:00.590Z,4.65
2018-02-15T23:18:28.485Z,4.62
2018-02-15T23:20:56.042Z,4.64
2018-02-15T23:23:23.593Z,4.69
2018-02-15T23:25:51.194Z,4.72
2018-02-15T23:28:18.736Z,4.66
2018-02-15T23:30:46.578Z,4.54
2018-02-15T23:33:14.216Z,4.60
2018-02-15T23:35:41.839Z,4.60
2018-02-15T23:38:09.441Z,4.55
2018-02-15T23:40:37.014Z,4.36
2018-02-15T23:43:04.638Z,4.41
2018-02-15T23:45:32.310Z,4.42
2018-02-15T23:48:00.402Z,4.45
2018-02-15T23:50:27.956Z,4.58
2018-02-15T23:52:55.949Z,4.55
2018-02-15T23:55:23.770Z,4.50
2018-02-15T23:57:51.657Z,4.45
